Time;durP1;ratioP1;P1;durP2;ratioP2;P2;SDS_P1;SDS_P2;PMS_P1;PMS_P2;Temp;Humidity;BMP_temperature;BMP_pressure;BME280_temperature;BME280_humidity;BME280_pressure;Samples;Min_cycle;Max_cycle;Signal;HPM_P1;HPM_P2
2021/07/10 00:00:25;;;;;;;31.73;17.00;;;;;;;16.61;76.28;102126.50;5052779;28;20465;-61
2021/07/10 00:02:50;;;;;;;32.20;16.73;;;;;;;16.60;75.50;102117.63;5049137;28;20033;-61
2021/07/10 00:05:16;;;;;;;29.58;15.95;;;;;;;16.59;75.83;102115.03;5055284;28;20060;-61
2021/07/10 00:07:42;;;;;;;28.83;14.65;;;;;;;16.58;76.00;102111.47;5055002;28;20036;-62
2021/07/10 00:10:10;;;;;;;32.08;17.15;;;;;;;16.54;75.66;102109.91;5053657;28;20108;-62
2021/07/10 00:12:36;;;;;;;32.00;16.15;;;;;;;16.49;76.38;102093.22;5054575;28;20033;-63
2021/07/10 00:15:02;;;;;;;31.55;16.73;;;;;;;16.43;76.35;102102.41;5037699;28;20441;-62
2021/07/10 00:17:27;;;;;;;28.17;16.52;;;;;;;16.52;76.12;102103.75;5035260;28;20033;-62
2021/07/10 00:19:53;;;;;;;25.02;13.85;;;;;;;16.68;76.02;102109.22;5034974;28;20469;-63
2021/07/10 00:22:19;;;;;;;36.65;17.77;;;;;;;16.77;75.31;102095.38;5035976;28;20021;-63
2021/07/10 00:24:45;;;;;;;35.03;18.73;;;;;;;16.81;74.58;102102.28;5035783;28;20036;-63
2021/07/10 00:27:11;;;;;;;31.63;17.05;;;;;;;16.80;74.72;102094.34;5034793;28;20025;-64
2021/07/10 00:29:36;;;;;;;34.78;17.35;;;;;;;16.74;74.76;102094.66;5034430;28;20163;-63
2021/07/10 00:32:02;;;;;;;30.92;17.45;;;;;;;16.71;75.15;102087.66;5035874;28;20030;-62
2021/07/10 00:34:27;;;;;;;29.95;17.10;;;;;;;16.69;75.38;102095.75;5035766;28;20032;-62
2021/07/10 00:36:52;;;;;;;34.10;18.42;;;;;;;16.63;75.75;102090.72;5053764;28;20469;-63
2021/07/10 00:39:18;;;;;;;30.48;17.02;;;;;;;16.61;75.67;102087.28;5054520;28;20036;-62
2021/07/10 00:41:43;;;;;;;31.75;16.77;;;;;;;16.61;75.36;102081.94;5054287;28;20029;-64
2021/07/10 00:44:08;;;;;;;31.83;16.30;;;;;;;16.61;76.14;102073.03;5051155;28;20032;-61
2021/07/10 00:46:34;;;;;;;37.30;17.98;;;;;;;16.60;75.74;102073.97;5054789;28;20029;-62
2021/07/10 00:48:59;;;;;;;33.00;18.20;;;;;;;16.60;76.05;102072.16;5054717;28;20131;-62
2021/07/10 00:51:25;;;;;;;33.83;19.05;;;;;;;16.63;75.60;102079.16;5054091;28;20514;-61
2021/07/10 00:53:50;;;;;;;35.10;19.30;;;;;;;16.58;75.74;102079.41;5052347;28;20029;-62
2021/07/10 00:56:16;;;;;;;32.60;18.42;;;;;;;16.50;75.49;102069.09;5052350;28;20028;-61
2021/07/10 00:58:42;;;;;;;37.30;19.98;;;;;;;16.47;75.66;102071.03;5035473;28;20033;-61
2021/07/10 01:01:08;;;;;;;34.10;19.17;;;;;;;16.42;75.43;102068.63;5034259;28;20040;-62
2021/07/10 01:03:34;;;;;;;35.25;19.50;;;;;;;16.37;75.85;102070.66;5035015;28;20041;-61
2021/07/10 01:06:03;;;;;;;37.15;19.55;;;;;;;16.31;75.89;102066.47;5035077;28;20029;-60
2021/07/10 01:08:30;;;;;;;38.42;20.75;;;;;;;16.22;76.41;102065.09;5049212;28;20021;-61
2021/07/10 01:10:57;;;;;;;32.47;19.25;;;;;;;16.25;76.09;102069.44;5052363;28;20043;-63
2021/07/10 01:13:22;;;;;;;30.25;17.92;;;;;;;16.30;75.67;102064.72;5053387;28;20025;-62
2021/07/10 01:15:47;;;;;;;30.90;17.33;;;;;;;16.40;75.16;102054.44;5040537;28;20071;-59
2021/07/10 01:18:13;;;;;;;39.13;20.27;;;;;;;16.41;74.78;102049.94;5033759;28;20026;-61
2021/07/10 01:20:46;;;;;;;31.88;17.63;;;;;;;16.46;74.64;102063.97;5033828;28;20021;-61
2021/07/10 01:23:12;;;;;;;31.67;19.50;;;;;;;16.49;75.04;102050.44;5033805;28;20033;-62
2021/07/10 01:25:37;;;;;;;35.60;19.33;;;;;;;16.43;74.76;102045.41;5034608;28;20039;-62
2021/07/10 01:28:03;;;;;;;33.83;18.92;;;;;;;16.31;75.27;102044.22;5034971;28;20029;-63
2021/07/10 01:30:28;;;;;;;32.85;18.83;;;;;;;16.33;75.88;102042.31;5046103;28;20025;-62
2021/07/10 01:32:56;;;;;;;34.08;19.58;;;;;;;16.45;74.90;102044.38;5051585;28;20048;-64
2021/07/10 01:35:22;;;;;;;35.45;19.50;;;;;;;16.54;74.42;102043.06;5052480;28;20021;-63
2021/07/10 01:37:48;;;;;;;38.60;20.33;;;;;;;16.61;74.53;102030.22;5052786;28;20033;-64
2021/07/10 01:40:18;;;;;;;35.78;19.77;;;;;;;16.64;74.23;102030.09;5051919;28;20362;-63
2021/07/10 01:42:45;;;;;;;36.10;20.38;;;;;;;16.63;74.79;102026.53;5053362;28;20075;-62
2021/07/10 01:45:11;;;;;;;34.47;19.50;;;;;;;16.55;74.86;102023.41;5053253;28;20032;-63
2021/07/10 01:47:37;;;;;;;36.25;18.67;;;;;;;16.48;75.27;102013.97;5049796;28;20052;-63
2021/07/10 01:50:05;;;;;;;34.00;18.23;;;;;;;16.42;75.14;102019.59;5052944;28;20029;-63
2021/07/10 01:52:31;;;;;;;37.85;20.65;;;;;;;16.34;76.21;102020.00;5053313;28;20075;-64
2021/07/10 01:54:56;;;;;;;39.55;20.33;;;;;;;16.27;76.42;102013.25;5053150;28;20033;-63
2021/07/10 01:57:21;;;;;;;40.33;20.08;;;;;;;16.22;76.47;102016.16;5051643;28;20028;-62
2021/07/10 01:59:47;;;;;;;43.72;22.63;;;;;;;16.15;76.91;102014.72;5048758;28;20040;-61
2021/07/10 02:02:12;;;;;;;43.53;21.85;;;;;;;16.07;77.55;102007.06;5052578;28;20092;-62
2021/07/10 02:04:48;;;;;;;42.55;21.50;;;;;;;16.06;77.15;102016.03;5053090;28;20037;-60
2021/07/10 02:07:15;;;;;;;43.08;22.08;;;;;;;16.01;77.88;102018.94;5052744;28;20151;-61
2021/07/10 02:09:41;;;;;;;45.70;23.23;;;;;;;16.03;78.11;102008.16;5049719;28;20024;-61
2021/07/10 02:12:07;;;;;;;42.22;21.35;;;;;;;16.08;77.66;102006.13;5052633;28;20133;-60
2021/07/10 02:14:32;;;;;;;44.47;21.90;;;;;;;16.11;77.98;102007.78;5052882;28;20473;-63
2021/07/10 02:16:58;;;;;;;41.75;21.17;;;;;;;16.12;77.85;102002.38;5052654;28;20103;-61
2021/07/10 02:19:23;;;;;;;44.10;20.80;;;;;;;16.14;77.99;101999.59;5052309;28;20041;-63
2021/07/10 02:21:48;;;;;;;46.45;22.25;;;;;;;16.17;77.64;102016.34;5052888;28;20346;-61
2021/07/10 02:24:14;;;;;;;38.08;19.92;;;;;;;16.22;77.40;102014.31;5052826;28;20025;-61
2021/07/10 02:26:40;;;;;;;39.85;22.40;;;;;;;16.27;77.42;102005.22;5051613;28;20466;-62
2021/07/10 02:29:06;;;;;;;46.97;23.55;;;;;;;16.22;77.99;102014.31;5051232;28;20056;-62
2021/07/10 02:31:32;;;;;;;46.72;23.83;;;;;;;16.20;77.62;102007.31;5050161;28;20064;-63
2021/07/10 02:33:57;;;;;;;41.58;20.83;;;;;;;16.21;78.35;102001.03;5052352;28;20424;-63
2021/07/10 02:36:23;;;;;;;42.60;22.73;;;;;;;16.26;77.38;102001.69;5052195;28;20091;-62
2021/07/10 02:38:48;;;;;;;39.50;21.50;;;;;;;16.25;77.09;102002.63;5052148;28;20050;-63
2021/07/10 02:41:14;;;;;;;49.35;24.13;;;;;;;16.13;77.38;101993.41;5049066;28;20063;-63
2021/07/10 02:43:39;;;;;;;41.97;21.08;;;;;;;16.07;77.73;101995.53;5052244;28;20029;-62
2021/07/10 02:46:05;;;;;;;46.65;23.40;;;;;;;15.98;78.11;101994.19;5052470;28;20029;-60
2021/07/10 02:48:31;;;;;;;47.20;23.73;;;;;;;15.86;77.92;101988.50;5052269;28;20075;-63
2021/07/10 02:50:57;;;;;;;45.45;23.42;;;;;;;15.78;78.58;101985.31;5044812;28;20133;-63
2021/07/10 02:53:22;;;;;;;45.65;24.27;;;;;;;15.73;78.85;101985.53;5032439;28;20037;-62
2021/07/10 02:55:48;;;;;;;44.00;21.75;;;;;;;15.66;78.79;101977.88;5032466;28;20528;-63
2021/07/10 02:58:14;;;;;;;42.28;22.30;;;;;;;15.59;79.02;101982.66;5032084;28;20033;-63
2021/07/10 03:00:40;;;;;;;49.83;23.98;;;;;;;15.55;79.21;101975.75;5032256;28;20026;-62
2021/07/10 03:03:06;;;;;;;46.15;23.77;;;;;;;15.54;79.22;101971.34;5050217;28;20037;-62
2021/07/10 03:05:33;;;;;;;46.75;23.30;;;;;;;15.51;79.59;101972.34;5052405;28;20060;-61
2021/07/10 03:07:59;;;;;;;48.42;24.30;;;;;;;15.46;79.94;101970.81;5052310;28;20037;-61
2021/07/10 03:10:27;;;;;;;47.65;22.73;;;;;;;15.49;79.98;101974.22;5052213;28;20029;-62
2021/07/10 03:12:54;;;;;;;46.35;22.77;;;;;;;15.51;80.46;101963.44;5039391;28;20115;-63
2021/07/10 03:15:19;;;;;;;54.35;26.17;;;;;;;15.56;79.97;101964.09;5032251;28;20097;-62
2021/07/10 03:17:46;;;;;;;55.10;26.58;;;;;;;15.57;80.16;101961.38;5031949;28;20034;-63
2021/07/10 03:20:13;;;;;;;53.97;25.63;;;;;;;15.61;80.10;101963.88;5032365;28;20026;-61
2021/07/10 03:22:38;;;;;;;58.33;27.55;;;;;;;15.57;80.45;101956.03;5034323;28;20108;-62
2021/07/10 03:25:06;;;;;;;53.88;25.73;;;;;;;15.58;80.39;101951.56;5032302;28;20061;-62
2021/07/10 03:27:31;;;;;;;49.92;26.00;;;;;;;15.56;80.10;101956.09;5032057;28;20474;-62
2021/07/10 03:29:57;;;;;;;59.90;27.17;;;;;;;15.54;80.19;101955.31;5032160;28;20033;-63
2021/07/10 03:32:22;;;;;;;58.95;26.40;;;;;;;15.62;79.99;101954.94;5032906;28;20368;-61
2021/07/10 03:34:47;;;;;;;60.90;29.52;;;;;;;15.73;79.69;101958.81;5033256;28;20519;-62
2021/07/10 03:37:13;;;;;;;61.25;28.50;;;;;;;15.81;78.92;101955.81;5033318;28;20079;-64
2021/07/10 03:39:38;;;;;;;57.10;27.75;;;;;;;15.86;78.50;101945.75;5035786;28;20036;-63
2021/07/10 03:42:04;;;;;;;58.92;28.73;;;;;;;15.83;79.00;101942.38;5035748;28;20025;-64
2021/07/10 03:44:29;;;;;;;55.75;26.20;;;;;;;15.87;78.64;101947.50;5037271;28;20075;-63
2021/07/10 03:46:54;;;;;;;57.83;25.42;;;;;;;15.94;78.76;101929.34;5035205;28;20034;-62
2021/07/10 03:49:20;;;;;;;59.90;27.52;;;;;;;16.01;78.13;101935.22;5035675;28;20080;-61
2021/07/10 03:51:45;;;;;;;55.85;27.33;;;;;;;16.01;78.21;101933.44;5035556;28;20108;-62
2021/07/10 03:54:10;;;;;;;52.72;26.08;;;;;;;16.05;78.12;101937.69;5037555;28;20030;-62
2021/07/10 03:56:35;;;;;;;52.30;25.63;;;;;;;16.02;78.40;101939.66;5035803;28;20086;-61
2021/07/10 03:59:01;;;;;;;53.25;26.05;;;;;;;16.02;78.33;101937.84;5035343;28;20470;-62
2021/07/10 04:01:26;;;;;;;59.08;27.15;;;;;;;15.98;78.02;101938.06;5035181;28;20032;-63
2021/07/10 04:03:51;;;;;;;54.35;24.05;;;;;;;15.93;78.33;101929.44;5036153;28;20042;-62
2021/07/10 04:06:17;;;;;;;58.20;24.92;;;;;;;15.80;78.71;101942.50;5036368;28;20072;-63
2021/07/10 04:08:42;;;;;;;56.25;26.25;;;;;;;15.66;79.44;101932.50;5035689;28;20045;-62
2021/07/10 04:11:07;;;;;;;53.58;24.48;;;;;;;15.59;79.49;101937.28;5035293;28;20108;-62
2021/07/10 04:13:33;;;;;;;56.47;25.08;;;;;;;15.54;79.77;101928.63;5035388;28;20026;-64
2021/07/10 04:16:00;;;;;;;57.60;25.77;;;;;;;15.54;80.13;101928.63;5037251;28;20419;-61
2021/07/10 04:18:26;;;;;;;55.80;26.33;;;;;;;15.54;80.47;101933.97;5035140;28;20646;-60
2021/07/10 04:20:52;;;;;;;57.80;25.73;;;;;;;15.56;80.37;101930.28;5034984;28;20441;-61
2021/07/10 04:23:17;;;;;;;57.17;26.30;;;;;;;15.66;80.25;101935.16;5035017;28;20053;-63
2021/07/10 04:25:42;;;;;;;54.30;24.90;;;;;;;15.68;80.19;101930.63;5036064;28;20500;-62
2021/07/10 04:28:08;;;;;;;54.47;24.13;;;;;;;15.76;79.87;101925.75;5035954;28;20411;-63
2021/07/10 04:30:33;;;;;;;50.55;24.00;;;;;;;15.83;79.80;101931.69;5034757;28;20032;-62
2021/07/10 04:32:58;;;;;;;54.40;26.25;;;;;;;15.89;80.14;101936.72;5034342;28;20511;-62
2021/07/10 04:35:24;;;;;;;57.33;26.23;;;;;;;15.95;80.08;101927.56;5035831;28;20036;-62
2021/07/10 04:37:49;;;;;;;49.53;24.25;;;;;;;16.05;79.63;101927.00;5036015;28;20037;-61
2021/07/10 04:40:15;;;;;;;49.45;23.88;;;;;;;16.24;79.04;101933.22;5034950;28;20600;-62
2021/07/10 04:42:41;;;;;;;43.80;22.63;;;;;;;16.43;78.17;101933.97;5034455;28;20492;-61
2021/07/10 04:45:08;;;;;;;49.40;24.20;;;;;;;16.55;77.64;101922.66;5035056;28;20029;-61
2021/07/10 04:47:34;;;;;;;50.65;22.75;;;;;;;16.66;77.33;101926.56;5035967;28;20045;-62
2021/07/10 04:49:59;;;;;;;43.70;22.02;;;;;;;16.75;76.81;101926.06;5033405;28;20087;-62
2021/07/10 04:52:25;;;;;;;45.88;23.40;;;;;;;16.74;77.28;101926.16;5034422;28;20035;-60
2021/07/10 04:54:51;;;;;;;46.33;24.73;;;;;;;16.83;77.02;101926.53;5034262;28;20021;-60
2021/07/10 04:57:16;;;;;;;41.83;22.73;;;;;;;17.09;76.06;101920.75;5035395;28;20120;-63
2021/07/10 04:59:42;;;;;;;46.60;22.65;;;;;;;17.31;74.42;101923.06;5035327;28;20030;-60
2021/07/10 05:02:07;;;;;;;46.13;22.88;;;;;;;17.43;74.00;101926.88;5033953;28;20030;-63
2021/07/10 05:04:32;;;;;;;44.53;23.15;;;;;;;17.42;74.10;101923.34;5033971;28;20099;-62
2021/07/10 05:06:58;;;;;;;44.65;22.77;;;;;;;17.40;74.42;101930.59;5035159;28;20033;-61
2021/07/10 05:09:23;;;;;;;41.85;21.67;;;;;;;17.36;74.25;101932.56;5042085;28;20483;-61
2021/07/10 05:11:49;;;;;;;44.90;22.52;;;;;;;17.42;74.59;101925.16;5039125;28;20392;-60
2021/07/10 05:14:15;;;;;;;46.45;20.83;;;;;;;17.58;73.81;101927.81;5051595;28;20495;-62
2021/07/10 05:16:40;;;;;;;40.42;21.55;;;;;;;17.74;72.97;101926.00;5052762;28;20037;-60
2021/07/10 05:19:06;;;;;;;42.30;21.00;;;;;;;17.84;71.58;101923.66;5051392;28;20099;-61
2021/07/10 05:21:32;;;;;;;44.25;22.15;;;;;;;17.87;72.36;101922.59;5053464;28;20021;-61
2021/07/10 05:23:57;;;;;;;37.50;21.23;;;;;;;17.97;72.07;101918.47;5051575;28;20044;-62
2021/07/10 05:26:23;;;;;;;38.97;21.38;;;;;;;17.97;71.31;101915.78;5052479;28;20024;-61
2021/07/10 05:28:48;;;;;;;40.47;20.77;;;;;;;17.96;71.33;101922.09;5034399;28;20033;-62
2021/07/10 05:31:14;;;;;;;37.90;20.30;;;;;;;18.12;70.53;101925.59;5052986;28;20029;-61
2021/07/10 05:33:39;;;;;;;34.17;18.98;;;;;;;18.18;70.48;101927.03;5051741;28;20037;-62
2021/07/10 05:36:05;;;;;;;37.88;20.35;;;;;;;18.24;70.27;101923.13;5053163;28;20414;-60
2021/07/10 05:38:30;;;;;;;37.15;20.05;;;;;;;18.17;70.62;101927.97;5058572;28;20031;-62
2021/07/10 05:40:55;;;;;;;39.05;20.77;;;;;;;18.14;70.93;101926.34;5048697;28;20029;-61
2021/07/10 05:43:24;;;;;;;37.08;19.45;;;;;;;18.25;70.96;101925.72;5038900;28;20090;-62
2021/07/10 05:45:52;;;;;;;37.85;20.83;;;;;;;18.20;70.90;101933.19;5033162;28;20029;-62
2021/07/10 05:48:19;;;;;;;40.40;20.48;;;;;;;18.17;70.00;101920.81;5034019;28;20428;-63
2021/07/10 05:50:45;;;;;;;33.70;19.48;;;;;;;18.10;70.20;101932.84;5032529;28;20470;-62
2021/07/10 05:53:11;;;;;;;35.22;18.67;;;;;;;18.07;70.09;101925.00;5032965;28;20087;-63
2021/07/10 05:55:36;;;;;;;32.15;18.67;;;;;;;18.07;70.07;101922.31;5034092;28;20041;-61
2021/07/10 05:58:02;;;;;;;31.27;18.70;;;;;;;18.10;70.56;101923.97;5036652;28;20112;-60
2021/07/10 06:00:30;;;;;;;36.28;19.58;;;;;;;18.09;70.66;101928.44;5046180;28;20021;-60
2021/07/10 06:02:56;;;;;;;30.90;16.73;;;;;;;18.12;69.79;101922.91;5051899;28;20037;-61
2021/07/10 06:05:21;;;;;;;36.95;20.02;;;;;;;18.11;70.38;101920.34;5050276;28;20056;-62
2021/07/10 06:07:46;;;;;;;34.42;18.85;;;;;;;18.02;71.41;101924.41;5052685;28;20101;-63
2021/07/10 06:10:13;;;;;;;40.78;20.27;;;;;;;18.04;70.87;101919.81;5050225;28;20380;-62
2021/07/10 06:12:39;;;;;;;43.72;20.90;;;;;;;18.12;70.72;101924.72;5035060;28;20130;-63
2021/07/10 06:15:08;;;;;;;35.65;20.10;;;;;;;18.13;70.98;101926.44;5041943;28;20045;-63
2021/07/10 06:17:33;;;;;;;42.53;22.67;;;;;;;17.94;71.03;101934.72;5051708;28;20032;-63
2021/07/10 06:19:58;;;;;;;35.55;21.13;;;;;;;17.89;71.26;101934.97;5049101;28;20025;-61
2021/07/10 06:22:24;;;;;;;31.17;16.52;;;;;;;18.00;70.82;101923.63;5032251;28;20034;-62
2021/07/10 06:24:49;;;;;;;36.70;20.95;;;;;;;18.14;70.90;101920.97;5032780;28;20100;-61
2021/07/10 06:27:15;;;;;;;35.65;19.98;;;;;;;18.23;71.07;101929.44;5046039;28;20047;-62
2021/07/10 06:29:40;;;;;;;36.75;21.08;;;;;;;18.36;70.33;101930.41;5051516;28;20110;-61
2021/07/10 06:32:09;;;;;;;37.55;20.02;;;;;;;18.46;69.55;101925.38;5038399;28;20037;-62
2021/07/10 06:34:34;;;;;;;37.22;19.63;;;;;;;18.65;68.66;101930.47;5033867;28;20037;-62
2021/07/10 06:37:00;;;;;;;33.72;19.65;;;;;;;18.85;68.55;101923.88;5042043;28;20361;-59
2021/07/10 06:39:25;;;;;;;33.70;18.80;;;;;;;19.02;67.25;101925.50;5044033;28;20029;-60
2021/07/10 06:41:51;;;;;;;33.65;19.20;;;;;;;19.19;66.40;101915.53;5040271;28;20577;-61
2021/07/10 06:44:17;;;;;;;30.15;18.80;;;;;;;19.31;66.57;101909.38;5049768;28;20048;-61
2021/07/10 06:46:42;;;;;;;33.15;17.73;;;;;;;19.44;66.64;101906.75;5052362;28;20115;-61
2021/07/10 06:49:08;;;;;;;35.92;20.70;;;;;;;19.50;66.39;101911.69;5036230;28;20032;-60
2021/07/10 06:51:34;;;;;;;31.30;18.70;;;;;;;19.73;65.12;101906.63;5049323;28;20028;-62
2021/07/10 06:54:00;;;;;;;35.75;20.17;;;;;;;19.70;64.77;101912.22;5049734;28;20060;-61
2021/07/10 06:56:25;;;;;;;34.08;18.80;;;;;;;19.65;64.42;101909.81;5052395;28;20493;-62
2021/07/10 06:58:50;;;;;;;31.25;19.17;;;;;;;19.63;65.02;101912.63;5049818;28;20376;-60
2021/07/10 07:01:16;;;;;;;32.55;19.08;;;;;;;19.49;64.89;101905.47;5031970;28;20885;-60
2021/07/10 07:03:41;;;;;;;27.13;16.23;;;;;;;19.98;63.03;101911.25;5042898;28;20140;-61
2021/07/10 07:06:07;;;;;;;31.00;17.85;;;;;;;19.92;63.43;101922.41;5050110;28;20037;-61
2021/07/10 07:08:32;;;;;;;26.45;15.93;;;;;;;19.96;62.45;101911.34;5044636;28;20029;-62
2021/07/10 07:10:57;;;;;;;28.00;16.30;;;;;;;20.12;61.50;101911.16;5040414;28;20025;-61
2021/07/10 07:13:22;;;;;;;29.40;16.60;;;;;;;19.94;62.36;101923.19;5053575;28;20028;-62
2021/07/10 07:15:48;;;;;;;26.50;16.33;;;;;;;19.97;63.25;101918.47;5055288;28;20495;-61
2021/07/10 07:18:15;;;;;;;29.05;15.88;;;;;;;20.07;62.93;101917.84;5045522;28;20040;-60
2021/07/10 07:20:44;;;;;;;30.10;17.38;;;;;;;20.01;62.87;101910.19;5042215;28;20032;-61
2021/07/10 07:23:10;;;;;;;26.65;16.17;;;;;;;19.89;62.91;101907.34;5036709;28;20025;-61
2021/07/10 07:25:37;;;;;;;31.02;16.75;;;;;;;19.75;63.39;101904.72;5054032;28;20017;-61
2021/07/10 07:28:02;;;;;;;28.55;15.07;;;;;;;19.85;63.06;101896.91;5056052;28;20033;-61
2021/07/10 07:30:28;;;;;;;28.05;16.45;;;;;;;19.86;63.48;101898.63;5055653;28;20453;-61
2021/07/10 07:32:53;;;;;;;31.17;17.83;;;;;;;19.96;62.22;101897.03;5055641;28;20499;-63
2021/07/10 07:35:20;;;;;;;30.13;17.20;;;;;;;19.76;63.42;101906.44;5054217;28;20032;-62
2021/07/10 07:37:46;;;;;;;25.05;15.25;;;;;;;19.90;63.66;101906.41;5055377;28;20033;-61
2021/07/10 07:40:14;;;;;;;28.02;16.02;;;;;;;20.14;62.39;101897.59;5054767;28;20480;-60
2021/07/10 07:42:41;;;;;;;35.55;18.08;;;;;;;20.30;62.25;101900.13;5053138;28;20108;-62
2021/07/10 07:45:08;;;;;;;28.75;16.60;;;;;;;20.56;61.26;101902.81;5053956;28;20021;-61
2021/07/10 07:47:34;;;;;;;28.88;17.23;;;;;;;20.81;60.36;101898.38;5055778;28;20461;-61
2021/07/10 07:50:00;;;;;;;25.52;13.85;;;;;;;20.82;61.22;101898.31;5055981;28;20025;-59
2021/07/10 07:52:25;;;;;;;28.65;17.92;;;;;;;20.80;60.38;101897.53;5048431;28;20053;-59
2021/07/10 07:54:50;;;;;;;26.48;15.13;;;;;;;21.03;59.91;101892.34;5045113;28;20072;-60
2021/07/10 07:57:16;;;;;;;25.08;14.95;;;;;;;21.22;59.50;101892.69;5055278;28;20168;-60
2021/07/10 07:59:41;;;;;;;29.63;17.83;;;;;;;21.34;58.25;101893.63;5055048;28;20017;-60
2021/07/10 08:02:08;;;;;;;25.25;15.82;;;;;;;21.52;58.47;101887.84;5055308;28;20061;-61
2021/07/10 08:04:35;;;;;;;29.13;17.77;;;;;;;21.68;57.58;101888.44;5052793;28;20036;-60
2021/07/10 08:07:00;;;;;;;26.98;18.55;;;;;;;21.32;58.54;101886.63;5046780;28;20025;-59
2021/07/10 08:09:26;;;;;;;28.88;18.45;;;;;;;21.23;58.56;101882.81;5049342;28;20105;-60
2021/07/10 08:11:52;;;;;;;24.88;17.48;;;;;;;21.37;58.51;101882.63;5055134;28;20017;-60
2021/07/10 08:14:17;;;;;;;34.15;19.35;;;;;;;21.98;56.76;101881.69;5054763;28;20040;-60
2021/07/10 08:16:42;;;;;;;32.33;19.92;;;;;;;21.93;56.38;101879.34;5055531;28;20032;-59
2021/07/10 08:19:07;;;;;;;30.33;19.63;;;;;;;21.67;56.90;101878.63;5055476;28;20036;-60
2021/07/10 08:21:33;;;;;;;25.98;17.08;;;;;;;21.73;57.39;101874.63;5054040;28;20072;-60
2021/07/10 08:23:59;;;;;;;25.02;17.63;;;;;;;21.69;56.68;101879.38;5053139;28;20634;-59
2021/07/10 08:26:26;;;;;;;26.13;19.05;;;;;;;21.80;56.51;101873.16;5054659;28;20025;-61
2021/07/10 08:28:52;;;;;;;29.23;18.45;;;;;;;21.93;56.03;101870.38;5055204;28;20143;-60
2021/07/10 08:31:17;;;;;;;25.17;17.20;;;;;;;21.93;55.63;101868.56;5053934;28;20087;-61
2021/07/10 08:33:43;;;;;;;26.25;18.13;;;;;;;22.00;56.57;101865.41;5054407;28;20033;-60
2021/07/10 08:36:08;;;;;;;26.70;18.27;;;;;;;21.93;55.37;101863.19;5055174;28;20037;-59
2021/07/10 08:38:36;;;;;;;26.05;16.80;;;;;;;22.15;55.87;101860.63;5054086;28;20033;-60
2021/07/10 08:41:03;;;;;;;25.98;17.63;;;;;;;22.42;53.83;101874.69;5058546;28;20017;-63
2021/07/10 08:43:28;;;;;;;24.60;17.75;;;;;;;21.97;54.86;101862.94;5054428;28;20524;-62
2021/07/10 08:45:56;;;;;;;25.83;17.83;;;;;;;22.27;54.92;101859.69;5053480;28;20112;-61
2021/07/10 08:48:21;;;;;;;29.83;16.85;;;;;;;22.64;54.14;101858.66;5050095;28;20025;-61
2021/07/10 08:50:46;;;;;;;25.10;16.70;;;;;;;23.12;52.13;101861.03;5054497;28;20151;-61
2021/07/10 08:53:12;;;;;;;23.40;17.05;;;;;;;23.18;51.69;101852.44;5053541;28;20461;-62
2021/07/10 08:55:38;;;;;;;21.25;14.93;;;;;;;23.72;50.12;101861.47;5049052;28;20053;-62
2021/07/10 08:58:05;;;;;;;20.33;14.32;;;;;;;24.27;48.75;101852.34;5053113;28;20040;-61
2021/07/10 09:00:36;;;;;;;14.10;9.20;;;;;;;24.77;43.63;101853.41;5052907;28;20120;-61
2021/07/10 09:03:03;;;;;;;13.63;9.95;;;;;;;25.13;44.39;101854.66;5053441;28;20098;-60
2021/07/10 09:05:29;;;;;;;14.93;11.15;;;;;;;24.95;44.98;101848.19;5054102;28;20025;-60
2021/07/10 09:08:21;;;;;;;17.38;11.82;;;;;;;24.96;45.17;101836.38;5053255;28;20385;-61
2021/07/10 09:11:13;;;;;;;16.70;11.60;;;;;;;25.92;43.63;101839.28;5053369;28;20106;-60
2021/07/10 09:13:42;;;;;;;16.40;11.95;;;;;;;25.87;43.00;101833.44;5053135;28;20037;-61
2021/07/10 09:16:11;;;;;;;19.17;13.00;;;;;;;25.12;44.79;101839.41;5050875;28;20024;-62
2021/07/10 09:18:40;;;;;;;19.05;12.88;;;;;;;24.16;47.30;101841.59;5052502;28;20021;-59
2021/07/10 09:21:06;;;;;;;18.40;13.57;;;;;;;23.82;48.11;101837.19;5054123;28;20115;-59
2021/07/10 09:23:39;;;;;;;19.25;12.73;;;;;;;23.99;47.32;101829.50;5053668;28;20115;-59
2021/07/10 09:26:17;;;;;;;19.20;13.45;;;;;;;23.79;49.07;101834.75;5053005;28;20028;-59
2021/07/10 09:28:43;;;;;;;16.85;12.30;;;;;;;23.72;48.78;101834.44;5052458;28;20053;-62
2021/07/10 09:31:23;;;;;;;16.83;12.98;;;;;;;23.54;48.58;101831.47;5050449;28;20488;-61
2021/07/10 09:33:55;;;;;;;20.90;14.85;;;;;;;23.59;49.20;101828.34;5035508;28;20026;-59
2021/07/10 09:36:21;;;;;;;22.77;15.82;;;;;;;23.42;49.62;101835.19;5034460;28;20021;-59
2021/07/10 09:38:52;;;;;;;19.30;14.20;;;;;;;23.38;50.59;101831.88;5034691;28;20030;-60
2021/07/10 09:41:23;;;;;;;;;;;;;;;23.50;49.97;101829.13;5050199;28;20021;-59
2021/07/10 09:43:48;;;;;;;19.80;15.73;;;;;;;23.67;51.17;101827.69;5052143;28;19920;-59
2021/07/10 09:46:24;;;;;;;20.85;14.88;;;;;;;24.15;49.29;101827.19;5037780;28;20026;-59
2021/07/10 09:48:50;;;;;;;25.48;15.85;;;;;;;24.65;47.28;101820.19;5043034;28;20025;-60
2021/07/10 09:51:22;;;;;;;22.73;16.17;;;;;;;25.04;45.59;101820.28;5046079;28;20022;-59
2021/07/10 09:54:01;;;;;;;19.17;14.90;;;;;;;25.11;47.57;101813.28;5037766;28;20060;-59
2021/07/10 09:56:28;;;;;;;18.13;13.90;;;;;;;25.54;46.19;101815.75;5050038;28;20170;-60
2021/07/10 09:58:55;;;;;;;19.42;15.45;;;;;;;25.08;46.06;101808.16;5038016;28;20044;-60
2021/07/10 10:01:31;;;;;;;21.80;15.93;;;;;;;24.84;45.74;101805.84;5020783;28;20100;-61
2021/07/10 10:03:58;;;;;;;20.98;14.00;;;;;;;24.88;45.49;101809.97;5046704;28;20073;-60
2021/07/10 10:06:31;;;;;;;18.98;13.82;;;;;;;24.92;45.61;101808.69;5048503;28;20029;-62
2021/07/10 10:08:58;;;;;;;21.70;16.35;;;;;;;24.68;46.59;101801.81;5048228;28;20028;-62
2021/07/10 10:11:24;;;;;;;19.77;15.13;;;;;;;24.66;48.06;101805.66;5053129;28;20028;-62
2021/07/10 10:13:51;;;;;;;20.95;15.80;;;;;;;24.47;46.54;101806.41;5052984;28;20049;-61
2021/07/10 10:16:17;;;;;;;23.25;15.80;;;;;;;24.20;47.49;101803.28;5043717;28;20104;-61
2021/07/10 10:18:43;;;;;;;22.75;17.50;;;;;;;23.86;48.73;101811.63;5047587;28;20469;-60
2021/07/10 10:21:09;;;;;;;24.75;17.45;;;;;;;24.02;48.69;101811.16;5052368;28;20071;-59
2021/07/10 10:23:35;;;;;;;22.70;17.30;;;;;;;24.13;48.47;101809.38;5049802;28;20029;-60
2021/07/10 10:26:00;;;;;;;21.27;16.17;;;;;;;24.20;47.19;101799.72;5043472;28;20029;-59
2021/07/10 10:28:27;;;;;;;19.88;15.13;;;;;;;24.35;47.37;101801.06;5051644;28;20396;-60
2021/07/10 10:30:56;;;;;;;19.77;13.77;;;;;;;24.80;46.47;101799.81;5034027;28;20033;-60
2021/07/10 10:33:23;;;;;;;17.88;14.32;;;;;;;25.10;44.87;101791.75;5034308;28;20120;-60
2021/07/10 10:35:50;;;;;;;19.45;14.23;;;;;;;25.14;45.67;101799.47;5036211;28;20087;-59
2021/07/10 10:38:17;;;;;;;16.30;12.48;;;;;;;25.02;45.06;101792.47;5035071;28;20136;-59
2021/07/10 10:40:43;;;;;;;23.92;13.43;;;;;;;25.38;45.32;101794.66;5037969;28;20033;-60
2021/07/10 10:43:14;;;;;;;17.75;11.88;;;;;;;26.72;41.35;101791.84;5032808;28;20037;-61
2021/07/10 10:45:40;;;;;;;18.67;11.85;;;;;;;27.46;39.53;101779.88;5031928;28;20037;-62
2021/07/10 10:48:06;;;;;;;17.50;11.98;;;;;;;27.49;39.22;101773.28;5045602;28;20433;-62
2021/07/10 10:50:37;;;;;;;19.65;13.15;;;;;;;27.75;39.49;101775.16;5050578;28;20051;-62
2021/07/10 10:53:04;;;;;;;17.42;11.60;;;;;;;27.86;38.64;101774.91;5050046;28;20067;-62
2021/07/10 10:55:33;;;;;;;18.67;12.73;;;;;;;27.57;39.12;101773.34;5052562;28;20033;-62
2021/07/10 10:58:14;;;;;;;19.15;12.77;;;;;;;27.00;40.82;101768.22;5051483;28;20455;-61
2021/07/10 11:00:42;;;;;;;16.75;12.82;;;;;;;27.17;41.12;101762.94;5042566;28;20068;-62
2021/07/10 11:03:15;;;;;;;16.80;13.50;;;;;;;27.11;39.72;101756.25;5052387;28;20025;-61
2021/07/10 11:05:55;;;;;;;18.42;12.98;;;;;;;27.42;39.78;101748.59;5047927;28;20025;-62